Monday, January 21, 2019, 10:09 PM GMT
Back to Local

CWAF, Ile Rouge Meteorological Aeronautical Presentation System

Location: , , Canada Lat: 48.083
Local Time: 10:09 PM GMT (22:09 GMT) Lon: -69.55
Time Zone: GMT Elev: 16 ft

Show me the last for .
Show Coded

Time T Td Feel RH Dir Speed Gust Alt SLP Vis Weather Sky Remarks
2019-01-21 21:00 11 3 -11 69 350° 25 32 - - 0 Peak wind: 36 mph (32 kts) from 110° at 18 min
2019-01-21 20:00 11 1 -14 65 360° 28 39 - - 0 Peak wind: 39 mph (34 kts) from 340° at 51 min
2019-01-21 19:00 10 2 -13 67 350° 28 35 - - 0 Peak wind: 36 mph (32 kts) from 350° at 45 min
2019-01-21 18:00 10 2 -13 67 350° 26 33 - - 0 Peak wind: 37 mph (33 kts) from 350° at 18 min
2019-01-21 17:00 9 0 -15 65 340° 28 33 - - 0 Peak wind: 35 mph (31 kts) from 350° at 42 min
2019-01-21 16:00 7 0 -17 70 340° 24 35 - - 0 Peak wind: 35 mph (31 kts) from 330° at 09 min
2019-01-21 15:00 7 -1 -18 70 340° 28 33 - - 0 Peak wind: 36 mph (32 kts) from 330° at 06 min
2019-01-21 14:00 6 2 -20 83 330° 30 36 - - 0 Peak wind: 40 mph (35 kts) from 330° at 20 min
2019-01-21 13:00 5 1 -22 81 320° 32 40 - - 0 Peak wind: 40 mph (35 kts) from 320° at 58 min
2019-01-21 12:00 6 1 -20 77 320° 32 38 - - 0 Peak wind: 41 mph (36 kts) from 330° at 33 min
2019-01-21 11:00 6 1 -20 79 330° 32 38 - - 0 Peak wind: 39 mph (34 kts) from 320° at 05 min
2019-01-21 10:00 6 2 -18 81 330° 31 - - - 0 Peak wind: 36 mph (32 kts) from 320° at 09 min
2019-01-21 09:00 7 3 -18 81 330° 31 37 - - 0 Peak wind: 36 mph (32 kts) from 330° at 48 min
2019-01-21 08:00 8 4 -16 81 340° 29 36 - - 0 Peak wind: 35 mph (31 kts) from 340° at 56 min
2019-01-21 07:00 9 3 -13 76 360° 26 - - - 0 Peak wind: 37 mph (33 kts) from 0° at 07 min
2019-01-21 06:00 9 2 -16 74 10° 29 38 - - 0 Peak wind: 42 mph (37 kts) from 10° at 38 min
2019-01-21 05:00 8 4 -17 81 10° 32 40 - - 0 Peak wind: 48 mph (42 kts) from 10° at 04 min
2019-01-21 04:00 7 3 -20 80 10° 38 47 - - 0 Peak wind: 49 mph (43 kts) from 10° at 14 min
2019-01-21 03:00 8 4 -19 82 10° 38 48 - - 0 Peak wind: 51 mph (45 kts) from 10° at 24 min
2019-01-21 02:00 8 3 -19 80 20° 39 47 - - 0 Peak wind: 55 mph (48 kts) from 20° at 01 min
2019-01-21 01:00 8 4 -20 84 20° 44 53 - - 0 Peak wind: 55 mph (48 kts) from 20° at 05 min
2019-01-21 00:00 9 5 -19 84 30° 39 51 - - 0 Peak wind: 51 mph (45 kts) from 30° at 11 min
2019-01-20 23:00 10 7 -17 88 30° 40 49 - - 0 Peak wind: 49 mph (43 kts) from 30° at 14 min

Support USWX by starting your Amazon purchase here.